sensor_id;sensor_type;location;lat;lon;timestamp;pressure;altitude;pressure_sealevel;temperature;humidity
75045;BME280;63614;56.026;35.960;2024-03-08T00:00:24;99439.72;;;-7.37;66.15
75045;BME280;63614;56.026;35.960;2024-03-08T00:02:50;99435.50;;;-7.55;65.33
75045;BME280;63614;56.026;35.960;2024-03-08T00:05:16;99435.81;;;-7.80;65.33
75045;BME280;63614;56.026;35.960;2024-03-08T00:07:43;99422.19;;;-7.76;65.54
75045;BME280;63614;56.026;35.960;2024-03-08T00:10:11;99425.66;;;-7.98;65.60
75045;BME280;63614;56.026;35.960;2024-03-08T00:12:41;99425.53;;;-8.14;65.73
75045;BME280;63614;56.026;35.960;2024-03-08T00:15:11;99413.09;;;-8.18;65.70
75045;BME280;63614;56.026;35.960;2024-03-08T00:17:40;99408.47;;;-7.90;65.19
75045;BME280;63614;56.026;35.960;2024-03-08T00:20:06;99405.34;;;-7.58;66.82
75045;BME280;63614;56.026;35.960;2024-03-08T00:22:36;99390.34;;;-7.26;67.79
75045;BME280;63614;56.026;35.960;2024-03-08T00:25:06;99401.13;;;-7.23;66.01
75045;BME280;63614;56.026;35.960;2024-03-08T00:27:36;99389.84;;;-7.33;66.72
75045;BME280;63614;56.026;35.960;2024-03-08T00:30:02;99399.22;;;-7.35;67.17
75045;BME280;63614;56.026;35.960;2024-03-08T00:32:31;99389.84;;;-7.33;66.10
75045;BME280;63614;56.026;35.960;2024-03-08T00:34:57;99383.22;;;-7.36;65.01
75045;BME280;63614;56.026;35.960;2024-03-08T00:37:24;99384.56;;;-7.28;64.28
75045;BME280;63614;56.026;35.960;2024-03-08T00:39:51;99388.09;;;-7.50;63.79
75045;BME280;63614;56.026;35.960;2024-03-08T00:42:18;99391.69;;;-7.54;64.46
75045;BME280;63614;56.026;35.960;2024-03-08T00:44:45;99384.72;;;-7.86;63.31
75045;BME280;63614;56.026;35.960;2024-03-08T00:47:11;99385.38;;;-7.82;63.67
75045;BME280;63614;56.026;35.960;2024-03-08T00:49:37;99393.53;;;-7.75;63.44
75045;BME280;63614;56.026;35.960;2024-03-08T00:52:04;99387.13;;;-8.01;62.93
75045;BME280;63614;56.026;35.960;2024-03-08T00:54:36;99385.22;;;-8.15;63.89
75045;BME280;63614;56.026;35.960;2024-03-08T00:57:03;99393.00;;;-8.20;64.05
75045;BME280;63614;56.026;35.960;2024-03-08T00:59:29;99396.28;;;-8.18;64.57
75045;BME280;63614;56.026;35.960;2024-03-08T01:01:59;99393.69;;;-8.16;64.03
75045;BME280;63614;56.026;35.960;2024-03-08T01:04:28;99390.97;;;-8.12;64.15
75045;BME280;63614;56.026;35.960;2024-03-08T01:06:56;99390.88;;;-7.91;63.02
75045;BME280;63614;56.026;35.960;2024-03-08T01:09:26;99392.81;;;-7.79;62.80
75045;BME280;63614;56.026;35.960;2024-03-08T01:11:54;99400.66;;;-7.66;62.82
75045;BME280;63614;56.026;35.960;2024-03-08T01:14:21;99397.09;;;-7.62;63.07
75045;BME280;63614;56.026;35.960;2024-03-08T01:16:51;99395.53;;;-7.64;64.17
75045;BME280;63614;56.026;35.960;2024-03-08T01:19:17;99396.31;;;-7.45;63.35
75045;BME280;63614;56.026;35.960;2024-03-08T01:21:43;99398.59;;;-7.23;65.20
75045;BME280;63614;56.026;35.960;2024-03-08T01:24:09;99393.69;;;-7.08;63.58
75045;BME280;63614;56.026;35.960;2024-03-08T01:26:35;99394.44;;;-7.06;62.36
75045;BME280;63614;56.026;35.960;2024-03-08T01:29:01;99394.81;;;-6.97;62.89
75045;BME280;63614;56.026;35.960;2024-03-08T01:31:30;99389.88;;;-6.82;64.96
75045;BME280;63614;56.026;35.960;2024-03-08T01:33:57;99384.28;;;-6.71;66.82
75045;BME280;63614;56.026;35.960;2024-03-08T01:36:24;99388.38;;;-6.69;68.49
75045;BME280;63614;56.026;35.960;2024-03-08T01:38:51;99393.19;;;-6.64;71.15
75045;BME280;63614;56.026;35.960;2024-03-08T01:41:17;99385.44;;;-6.61;71.68
75045;BME280;63614;56.026;35.960;2024-03-08T01:43:44;99390.28;;;-6.57;71.15
75045;BME280;63614;56.026;35.960;2024-03-08T01:46:13;99388.72;;;-6.43;71.56
75045;BME280;63614;56.026;35.960;2024-03-08T01:48:41;99389.84;;;-6.31;71.58
75045;BME280;63614;56.026;35.960;2024-03-08T01:51:08;99382.16;;;-6.30;71.38
75045;BME280;63614;56.026;35.960;2024-03-08T01:53:34;99386.38;;;-6.30;71.62
75045;BME280;63614;56.026;35.960;2024-03-08T01:56:02;99388.88;;;-6.46;71.64
75045;BME280;63614;56.026;35.960;2024-03-08T01:58:29;99383.19;;;-6.34;72.37
75045;BME280;63614;56.026;35.960;2024-03-08T02:00:56;99379.38;;;-6.25;72.11
75045;BME280;63614;56.026;35.960;2024-03-08T02:03:23;99377.09;;;-6.30;72.20
75045;BME280;63614;56.026;35.960;2024-03-08T02:05:49;99377.09;;;-6.30;72.77
75045;BME280;63614;56.026;35.960;2024-03-08T02:08:15;99370.97;;;-6.26;72.75
75045;BME280;63614;56.026;35.960;2024-03-08T02:10:44;99373.56;;;-6.11;72.02
75045;BME280;63614;56.026;35.960;2024-03-08T02:13:10;99376.44;;;-6.02;72.06
75045;BME280;63614;56.026;35.960;2024-03-08T02:15:57;99364.19;;;-6.09;71.83
75045;BME280;63614;56.026;35.960;2024-03-08T02:18:46;99379.22;;;-6.06;71.82
75045;BME280;63614;56.026;35.960;2024-03-08T02:21:13;99369.75;;;-6.03;72.34
75045;BME280;63614;56.026;35.960;2024-03-08T02:23:44;99372.28;;;-6.03;72.83
75045;BME280;63614;56.026;35.960;2024-03-08T02:26:10;99370.50;;;-5.86;72.47
75045;BME280;63614;56.026;35.960;2024-03-08T02:28:36;99370.34;;;-5.83;71.97
75045;BME280;63614;56.026;35.960;2024-03-08T02:31:02;99374.56;;;-5.98;72.37
75045;BME280;63614;56.026;35.960;2024-03-08T02:33:28;99363.91;;;-5.89;73.28
75045;BME280;63614;56.026;35.960;2024-03-08T02:35:54;99363.22;;;-5.76;73.01
75045;BME280;63614;56.026;35.960;2024-03-08T02:38:22;99360.34;;;-5.70;73.17
75045;BME280;63614;56.026;35.960;2024-03-08T02:40:51;99345.41;;;-5.75;73.70
75045;BME280;63614;56.026;35.960;2024-03-08T02:43:18;99353.72;;;-5.73;73.88
75045;BME280;63614;56.026;35.960;2024-03-08T02:45:45;99349.72;;;-5.61;73.68
75045;BME280;63614;56.026;35.960;2024-03-08T02:48:12;99342.78;;;-5.43;73.59
75045;BME280;63614;56.026;35.960;2024-03-08T02:50:38;99347.53;;;-5.37;72.92
75045;BME280;63614;56.026;35.960;2024-03-08T02:53:13;99344.00;;;-5.34;73.14
75045;BME280;63614;56.026;35.960;2024-03-08T02:55:39;99343.66;;;-5.28;73.09
75045;BME280;63614;56.026;35.960;2024-03-08T02:58:07;99339.47;;;-5.29;73.24
75045;BME280;63614;56.026;35.960;2024-03-08T03:00:37;99339.47;;;-5.29;73.33
75045;BME280;63614;56.026;35.960;2024-03-08T03:03:04;99337.06;;;-5.16;73.39
75045;BME280;63614;56.026;35.960;2024-03-08T03:05:30;99333.22;;;-5.23;73.58
75045;BME280;63614;56.026;35.960;2024-03-08T03:07:56;99338.38;;;-5.25;73.59
75045;BME280;63614;56.026;35.960;2024-03-08T03:10:24;99334.53;;;-5.16;73.94
75045;BME280;63614;56.026;35.960;2024-03-08T03:12:50;99317.47;;;-5.29;74.47
75045;BME280;63614;56.026;35.960;2024-03-08T03:15:17;99319.94;;;-5.13;74.52
75045;BME280;63614;56.026;35.960;2024-03-08T03:17:47;99313.44;;;-5.02;74.09
75045;BME280;63614;56.026;35.960;2024-03-08T03:20:13;99311.16;;;-4.93;73.62
75045;BME280;63614;56.026;35.960;2024-03-08T03:22:40;99304.63;;;-4.97;73.96
75045;BME280;63614;56.026;35.960;2024-03-08T03:25:08;99301.28;;;-4.83;74.03
75045;BME280;63614;56.026;35.960;2024-03-08T03:27:35;99303.66;;;-4.80;73.65
75045;BME280;63614;56.026;35.960;2024-03-08T03:30:03;99304.91;;;-4.87;74.53
75045;BME280;63614;56.026;35.960;2024-03-08T03:32:50;99297.88;;;-4.96;74.75
75045;BME280;63614;56.026;35.960;2024-03-08T03:35:21;99294.94;;;-5.04;75.19
75045;BME280;63614;56.026;35.960;2024-03-08T03:37:48;99285.06;;;-5.09;75.52
75045;BME280;63614;56.026;35.960;2024-03-08T03:40:28;99289.50;;;-4.98;75.65
75045;BME280;63614;56.026;35.960;2024-03-08T03:42:55;99292.66;;;-5.09;76.07
75045;BME280;63614;56.026;35.960;2024-03-08T03:45:22;99287.31;;;-5.04;76.00
75045;BME280;63614;56.026;35.960;2024-03-08T03:47:48;99285.97;;;-4.96;75.90
75045;BME280;63614;56.026;35.960;2024-03-08T03:50:14;99281.09;;;-4.99;76.31
75045;BME280;63614;56.026;35.960;2024-03-08T03:52:40;99284.25;;;-4.95;76.21
75045;BME280;63614;56.026;35.960;2024-03-08T03:55:08;99279.19;;;-4.95;76.27
75045;BME280;63614;56.026;35.960;2024-03-08T03:57:34;99282.25;;;-4.90;76.21
75045;BME280;63614;56.026;35.960;2024-03-08T04:00:00;99275.94;;;-4.97;76.19
75045;BME280;63614;56.026;35.960;2024-03-08T04:02:39;99277.34;;;-4.79;76.25
75045;BME280;63614;56.026;35.960;2024-03-08T04:05:09;99274.94;;;-4.80;76.42
75045;BME280;63614;56.026;35.960;2024-03-08T04:07:35;99269.03;;;-4.81;76.60
75045;BME280;63614;56.026;35.960;2024-03-08T04:10:02;99274.63;;;-4.76;76.59
75045;BME280;63614;56.026;35.960;2024-03-08T04:12:30;99265.78;;;-4.83;77.32
75045;BME280;63614;56.026;35.960;2024-03-08T04:14:56;99260.53;;;-4.94;77.54
75045;BME280;63614;56.026;35.960;2024-03-08T04:17:22;99258.63;;;-4.90;77.98
75045;BME280;63614;56.026;35.960;2024-03-08T04:19:50;99259.50;;;-4.92;77.97
75045;BME280;63614;56.026;35.960;2024-03-08T04:22:16;99268.59;;;-4.87;78.80
75045;BME280;63614;56.026;35.960;2024-03-08T04:24:46;99259.59;;;-4.93;78.81
75045;BME280;63614;56.026;35.960;2024-03-08T04:27:13;99263.50;;;-4.87;78.72
75045;BME280;63614;56.026;35.960;2024-03-08T04:29:40;99258.25;;;-4.84;78.91
75045;BME280;63614;56.026;35.960;2024-03-08T04:32:07;99256.97;;;-4.92;79.24
75045;BME280;63614;56.026;35.960;2024-03-08T04:34:34;99259.25;;;-5.01;79.33
75045;BME280;63614;56.026;35.960;2024-03-08T04:37:01;99260.09;;;-5.01;79.91
75045;BME280;63614;56.026;35.960;2024-03-08T04:39:28;99256.19;;;-5.06;79.95
75045;BME280;63614;56.026;35.960;2024-03-08T04:42:01;99255.56;;;-5.10;80.25
75045;BME280;63614;56.026;35.960;2024-03-08T04:44:32;99252.66;;;-4.89;80.64
75045;BME280;63614;56.026;35.960;2024-03-08T04:46:59;99255.00;;;-4.86;80.42
75045;BME280;63614;56.026;35.960;2024-03-08T04:49:26;99245.22;;;-4.93;80.01
75045;BME280;63614;56.026;35.960;2024-03-08T04:51:53;99246.47;;;-5.00;80.96
75045;BME280;63614;56.026;35.960;2024-03-08T04:54:19;99256.50;;;-4.84;80.63
75045;BME280;63614;56.026;35.960;2024-03-08T04:56:45;99248.72;;;-4.81;79.93
75045;BME280;63614;56.026;35.960;2024-03-08T04:59:11;99251.16;;;-4.79;79.96
75045;BME280;63614;56.026;35.960;2024-03-08T05:01:37;99247.28;;;-4.85;80.03
75045;BME280;63614;56.026;35.960;2024-03-08T05:04:04;99254.50;;;-4.79;80.11
75045;BME280;63614;56.026;35.960;2024-03-08T05:06:31;99245.38;;;-4.81;79.75
75045;BME280;63614;56.026;35.960;2024-03-08T05:08:57;99242.38;;;-4.73;79.58
75045;BME280;63614;56.026;35.960;2024-03-08T05:11:22;99243.13;;;-5.00;80.30
75045;BME280;63614;56.026;35.960;2024-03-08T05:13:48;99236.84;;;-4.95;80.58
75045;BME280;63614;56.026;35.960;2024-03-08T05:16:14;99238.78;;;-4.98;80.39
75045;BME280;63614;56.026;35.960;2024-03-08T05:18:41;99237.97;;;-4.99;80.26
75045;BME280;63614;56.026;35.960;2024-03-08T05:21:08;99235.97;;;-5.08;80.86
75045;BME280;63614;56.026;35.960;2024-03-08T05:23:35;99240.78;;;-5.03;80.65
75045;BME280;63614;56.026;35.960;2024-03-08T05:26:01;99243.22;;;-4.87;80.30
75045;BME280;63614;56.026;35.960;2024-03-08T05:28:26;99243.91;;;-4.71;79.43
75045;BME280;63614;56.026;35.960;2024-03-08T05:30:52;99242.47;;;-4.75;79.24
75045;BME280;63614;56.026;35.960;2024-03-08T05:33:18;99236.38;;;-4.72;79.28
75045;BME280;63614;56.026;35.960;2024-03-08T05:35:45;99240.63;;;-4.59;78.84
75045;BME280;63614;56.026;35.960;2024-03-08T05:38:10;99238.91;;;-4.72;78.98
75045;BME280;63614;56.026;35.960;2024-03-08T05:40:38;99237.47;;;-4.62;78.93
75045;BME280;63614;56.026;35.960;2024-03-08T05:43:04;99230.19;;;-4.54;78.79
75045;BME280;63614;56.026;35.960;2024-03-08T05:45:30;99227.88;;;-4.44;78.09
75045;BME280;63614;56.026;35.960;2024-03-08T05:47:56;99224.88;;;-4.36;77.71
75045;BME280;63614;56.026;35.960;2024-03-08T05:50:22;99224.72;;;-4.48;77.94
75045;BME280;63614;56.026;35.960;2024-03-08T05:52:48;99234.78;;;-4.46;77.36
75045;BME280;63614;56.026;35.960;2024-03-08T05:55:15;99224.88;;;-4.64;78.11
75045;BME280;63614;56.026;35.960;2024-03-08T05:57:41;99231.38;;;-4.60;78.42
75045;BME280;63614;56.026;35.960;2024-03-08T06:00:09;99230.69;;;-4.49;78.21
75045;BME280;63614;56.026;35.960;2024-03-08T06:02:42;99232.53;;;-4.51;77.99
75045;BME280;63614;56.026;35.960;2024-03-08T06:05:09;99227.66;;;-4.54;77.93
75045;BME280;63614;56.026;35.960;2024-03-08T06:07:36;99226.00;;;-4.28;77.50
75045;BME280;63614;56.026;35.960;2024-03-08T06:10:10;99227.69;;;-4.41;77.33
75045;BME280;63614;56.026;35.960;2024-03-08T06:12:36;99227.22;;;-4.33;77.25
75045;BME280;63614;56.026;35.960;2024-03-08T06:15:08;99220.44;;;-4.20;77.04
75045;BME280;63614;56.026;35.960;2024-03-08T06:17:36;99222.94;;;-4.33;77.00
75045;BME280;63614;56.026;35.960;2024-03-08T06:20:03;99220.69;;;-4.38;76.86
75045;BME280;63614;56.026;35.960;2024-03-08T06:22:30;99223.06;;;-4.22;77.16
75045;BME280;63614;56.026;35.960;2024-03-08T06:24:56;99217.69;;;-4.30;76.81
75045;BME280;63614;56.026;35.960;2024-03-08T06:27:22;99219.63;;;-4.21;76.70
75045;BME280;63614;56.026;35.960;2024-03-08T06:29:48;99215.25;;;-4.18;76.75
75045;BME280;63614;56.026;35.960;2024-03-08T06:32:15;99216.81;;;-4.16;76.46
75045;BME280;63614;56.026;35.960;2024-03-08T06:34:41;99220.25;;;-4.17;76.61
75045;BME280;63614;56.026;35.960;2024-03-08T06:37:07;99217.72;;;-4.17;76.48
75045;BME280;63614;56.026;35.960;2024-03-08T06:39:33;99223.75;;;-4.05;76.55
75045;BME280;63614;56.026;35.960;2024-03-08T06:42:01;99221.44;;;-3.95;76.46
75045;BME280;63614;56.026;35.960;2024-03-08T06:44:27;99215.44;;;-3.81;75.87
75045;BME280;63614;56.026;35.960;2024-03-08T06:46:53;99219.41;;;-3.90;75.38
75045;BME280;63614;56.026;35.960;2024-03-08T06:49:19;99217.28;;;-3.71;75.70
75045;BME280;63614;56.026;35.960;2024-03-08T06:51:45;99218.09;;;-3.70;74.81
75045;BME280;63614;56.026;35.960;2024-03-08T06:54:11;99210.06;;;-3.51;74.44
75045;BME280;63614;56.026;35.960;2024-03-08T06:56:36;99220.34;;;-3.27;74.25
75045;BME280;63614;56.026;35.960;2024-03-08T06:59:02;99210.66;;;-3.22;73.62
75045;BME280;63614;56.026;35.960;2024-03-08T07:01:31;99213.50;;;-3.14;73.26
75045;BME280;63614;56.026;35.960;2024-03-08T07:03:58;99220.81;;;-3.09;73.02
75045;BME280;63614;56.026;35.960;2024-03-08T07:06:24;99225.09;;;-3.35;73.38
75045;BME280;63614;56.026;35.960;2024-03-08T07:08:50;99231.72;;;-3.20;73.37
75045;BME280;63614;56.026;35.960;2024-03-08T07:11:16;99222.66;;;-3.24;73.82
75045;BME280;63614;56.026;35.960;2024-03-08T07:13:46;99228.84;;;-3.02;73.55
75045;BME280;63614;56.026;35.960;2024-03-08T07:16:12;99221.13;;;-3.14;73.41
75045;BME280;63614;56.026;35.960;2024-03-08T07:18:38;99227.22;;;-3.03;73.05
75045;BME280;63614;56.026;35.960;2024-03-08T07:21:09;99220.00;;;-3.10;72.71
75045;BME280;63614;56.026;35.960;2024-03-08T07:23:38;99223.66;;;-3.01;73.09
75045;BME280;63614;56.026;35.960;2024-03-08T07:26:35;99225.97;;;-2.85;72.45
75045;BME280;63614;56.026;35.960;2024-03-08T07:29:01;99221.16;;;-2.77;72.31
75045;BME280;63614;56.026;35.960;2024-03-08T07:31:27;99219.34;;;-2.87;72.12
75045;BME280;63614;56.026;35.960;2024-03-08T07:34:12;99223.06;;;-2.67;72.15
75045;BME280;63614;56.026;35.960;2024-03-08T07:36:38;99216.50;;;-2.59;71.67
75045;BME280;63614;56.026;35.960;2024-03-08T07:39:04;99202.31;;;-2.50;71.28
75045;BME280;63614;56.026;35.960;2024-03-08T07:41:38;99220.78;;;-2.59;71.67
75045;BME280;63614;56.026;35.960;2024-03-08T07:44:07;99208.41;;;-2.28;71.20
75045;BME280;63614;56.026;35.960;2024-03-08T07:46:32;99213.41;;;-2.27;70.94
75045;BME280;63614;56.026;35.960;2024-03-08T07:49:03;99207.06;;;-2.21;70.57
75045;BME280;63614;56.026;35.960;2024-03-08T07:51:29;99205.00;;;-2.16;70.90
75045;BME280;63614;56.026;35.960;2024-03-08T07:53:54;99204.88;;;-2.14;69.90
75045;BME280;63614;56.026;35.960;2024-03-08T07:56:20;99211.41;;;-2.10;69.96
75045;BME280;63614;56.026;35.960;2024-03-08T07:58:47;99206.78;;;-2.41;70.92
75045;BME280;63614;56.026;35.960;2024-03-08T08:01:18;99210.06;;;-2.27;70.55
75045;BME280;63614;56.026;35.960;2024-03-08T08:03:44;99211.63;;;-2.13;70.18
75045;BME280;63614;56.026;35.960;2024-03-08T08:06:10;99200.03;;;-2.06;70.16
75045;BME280;63614;56.026;35.960;2024-03-08T08:08:42;99212.38;;;-2.24;69.93
75045;BME280;63614;56.026;35.960;2024-03-08T08:11:08;99210.91;;;-2.15;70.94
75045;BME280;63614;56.026;35.960;2024-03-08T08:13:35;99202.63;;;-1.95;69.87
75045;BME280;63614;56.026;35.960;2024-03-08T08:16:03;99199.56;;;-2.11;70.17
75045;BME280;63614;56.026;35.960;2024-03-08T08:18:29;99198.88;;;-2.13;69.91
75045;BME280;63614;56.026;35.960;2024-03-08T08:20:55;99199.47;;;-2.10;70.10
75045;BME280;63614;56.026;35.960;2024-03-08T08:23:21;99196.69;;;-2.07;69.84
75045;BME280;63614;56.026;35.960;2024-03-08T08:25:47;99208.06;;;-1.99;69.60
75045;BME280;63614;56.026;35.960;2024-03-08T08:28:17;99211.31;;;-1.97;70.00
75045;BME280;63614;56.026;35.960;2024-03-08T08:30:44;99196.22;;;-1.65;68.93
75045;BME280;63614;56.026;35.960;2024-03-08T08:33:10;99193.09;;;-1.46;69.35
75045;BME280;63614;56.026;35.960;2024-03-08T08:35:37;99187.66;;;-1.41;68.03
75045;BME280;63614;56.026;35.960;2024-03-08T08:38:04;99201.28;;;-1.76;68.75
75045;BME280;63614;56.026;35.960;2024-03-08T08:40:30;99201.41;;;-1.67;69.25
75045;BME280;63614;56.026;35.960;2024-03-08T08:42:58;99199.69;;;-1.55;69.71
75045;BME280;63614;56.026;35.960;2024-03-08T08:45:24;99191.56;;;-1.37;68.69
75045;BME280;63614;56.026;35.960;2024-03-08T08:47:50;99194.00;;;-1.47;68.91
75045;BME280;63614;56.026;35.960;2024-03-08T08:50:16;99195.88;;;-1.38;68.69
75045;BME280;63614;56.026;35.960;2024-03-08T08:52:49;99196.09;;;-1.63;69.54
75045;BME280;63614;56.026;35.960;2024-03-08T08:55:15;99195.66;;;-1.46;69.40
75045;BME280;63614;56.026;35.960;2024-03-08T08:57:41;99192.97;;;-1.33;69.45
75045;BME280;63614;56.026;35.960;2024-03-08T09:00:07;99185.66;;;-1.38;69.27
75045;BME280;63614;56.026;35.960;2024-03-08T09:02:36;99192.06;;;-1.21;69.65
75045;BME280;63614;56.026;35.960;2024-03-08T09:05:03;99178.59;;;-1.12;69.23
75045;BME280;63614;56.026;35.960;2024-03-08T09:07:29;99188.44;;;-0.96;68.57
75045;BME280;63614;56.026;35.960;2024-03-08T09:09:55;99179.41;;;-1.34;68.66
75045;BME280;63614;56.026;35.960;2024-03-08T09:12:24;99182.66;;;-1.20;68.97
75045;BME280;63614;56.026;35.960;2024-03-08T09:14:50;99188.00;;;-1.35;69.67
75045;BME280;63614;56.026;35.960;2024-03-08T09:17:16;99184.63;;;-1.35;69.84
75045;BME280;63614;56.026;35.960;2024-03-08T09:19:49;99181.84;;;-1.32;69.16
75045;BME280;63614;56.026;35.960;2024-03-08T09:22:15;99180.31;;;-1.12;69.19
75045;BME280;63614;56.026;35.960;2024-03-08T09:24:41;99182.44;;;-1.40;69.77
75045;BME280;63614;56.026;35.960;2024-03-08T09:27:09;99190.44;;;-1.33;70.07
75045;BME280;63614;56.026;35.960;2024-03-08T09:29:35;99185.78;;;-1.28;70.12
75045;BME280;63614;56.026;35.960;2024-03-08T09:32:01;99196.09;;;-1.30;70.41
75045;BME280;63614;56.026;35.960;2024-03-08T09:34:28;99183.31;;;-1.07;69.79
75045;BME280;63614;56.026;35.960;2024-03-08T09:36:54;99182.44;;;-0.74;69.24
75045;BME280;63614;56.026;35.960;2024-03-08T09:39:20;99186.41;;;-0.37;67.98
75045;BME280;63614;56.026;35.960;2024-03-08T09:41:47;99181.41;;;-0.39;67.99
75045;BME280;63614;56.026;35.960;2024-03-08T09:44:16;99184.31;;;-0.32;67.59
75045;BME280;63614;56.026;35.960;2024-03-08T09:46:42;99189.50;;;-0.22;66.99
75045;BME280;63614;56.026;35.960;2024-03-08T09:49:08;99184.56;;;-0.35;66.99
75045;BME280;63614;56.026;35.960;2024-03-08T09:51:38;99182.56;;;-0.31;67.40
75045;BME280;63614;56.026;35.960;2024-03-08T09:54:06;99186.03;;;0.00;66.71
75045;BME280;63614;56.026;35.960;2024-03-08T09:56:33;99179.56;;;-0.37;67.10
75045;BME280;63614;56.026;35.960;2024-03-08T09:59:02;99180.09;;;-0.54;67.61
75045;BME280;63614;56.026;35.960;2024-03-08T10:01:37;99191.44;;;-0.47;67.83
75045;BME280;63614;56.026;35.960;2024-03-08T10:04:04;99188.31;;;-0.18;67.75
75045;BME280;63614;56.026;35.960;2024-03-08T10:06:30;99188.78;;;-0.24;67.30
75045;BME280;63614;56.026;35.960;2024-03-08T10:08:59;99187.69;;;-0.31;67.89
75045;BME280;63614;56.026;35.960;2024-03-08T10:11:25;99187.81;;;0.09;66.94
75045;BME280;63614;56.026;35.960;2024-03-08T10:13:52;99180.09;;;-0.01;66.65
75045;BME280;63614;56.026;35.960;2024-03-08T10:16:18;99188.00;;;-0.04;66.55
75045;BME280;63614;56.026;35.960;2024-03-08T10:18:47;99181.25;;;-0.26;66.94
75045;BME280;63614;56.026;35.960;2024-03-08T10:21:13;99186.88;;;-0.32;67.27
75045;BME280;63614;56.026;35.960;2024-03-08T10:23:42;99189.47;;;-0.55;68.92
75045;BME280;63614;56.026;35.960;2024-03-08T10:26:15;99182.06;;;-0.25;68.70
75045;BME280;63614;56.026;35.960;2024-03-08T10:28:45;99184.75;;;-0.27;68.14
75045;BME280;63614;56.026;35.960;2024-03-08T10:31:14;99176.66;;;-0.11;68.54
75045;BME280;63614;56.026;35.960;2024-03-08T10:33:42;99169.34;;;0.06;68.45
75045;BME280;63614;56.026;35.960;2024-03-08T10:36:08;99179.88;;;0.12;68.02
75045;BME280;63614;56.026;35.960;2024-03-08T10:38:38;99177.63;;;0.19;67.96
75045;BME280;63614;56.026;35.960;2024-03-08T10:41:07;99176.78;;;0.09;68.39
75045;BME280;63614;56.026;35.960;2024-03-08T10:43:52;99181.44;;;0.25;67.65
75045;BME280;63614;56.026;35.960;2024-03-08T10:49:16;99183.25;;;0.34;67.07
75045;BME280;63614;56.026;35.960;2024-03-08T10:51:46;99182.88;;;0.17;67.83
75045;BME280;63614;56.026;35.960;2024-03-08T10:54:14;99179.66;;;0.15;68.15
75045;BME280;63614;56.026;35.960;2024-03-08T10:56:41;99177.09;;;-0.06;68.43
75045;BME280;63614;56.026;35.960;2024-03-08T10:59:10;99180.84;;;0.11;68.98
75045;BME280;63614;56.026;35.960;2024-03-08T11:01:36;99189.44;;;0.10;68.90
75045;BME280;63614;56.026;35.960;2024-03-08T11:04:05;99185.94;;;0.32;68.19
75045;BME280;63614;56.026;35.960;2024-03-08T11:09:11;99186.66;;;0.44;67.84
75045;BME280;63614;56.026;35.960;2024-03-08T11:11:42;99184.63;;;0.69;68.01
75045;BME280;63614;56.026;35.960;2024-03-08T11:14:42;99182.25;;;0.87;67.31
75045;BME280;63614;56.026;35.960;2024-03-08T11:17:08;99183.34;;;0.94;66.98
75045;BME280;63614;56.026;35.960;2024-03-08T11:19:34;99175.00;;;1.02;66.07
75045;BME280;63614;56.026;35.960;2024-03-08T11:22:05;99166.13;;;1.06;66.06
75045;BME280;63614;56.026;35.960;2024-03-08T11:24:38;99164.63;;;1.03;66.00
75045;BME280;63614;56.026;35.960;2024-03-08T11:27:07;99170.88;;;1.11;65.41
75045;BME280;63614;56.026;35.960;2024-03-08T11:29:36;99160.91;;;1.17;65.56
75045;BME280;63614;56.026;35.960;2024-03-08T11:32:11;99160.63;;;1.20;65.47
75045;BME280;63614;56.026;35.960;2024-03-08T11:34:46;99150.78;;;1.25;65.30
75045;BME280;63614;56.026;35.960;2024-03-08T11:39:58;99159.00;;;1.29;64.87
75045;BME280;63614;56.026;35.960;2024-03-08T11:42:25;99163.34;;;1.29;65.39
75045;BME280;63614;56.026;35.960;2024-03-08T11:44:54;99164.81;;;1.21;65.76
75045;BME280;63614;56.026;35.960;2024-03-08T11:47:21;99169.25;;;1.29;65.05
75045;BME280;63614;56.026;35.960;2024-03-08T11:49:47;99160.38;;;1.33;65.11
75045;BME280;63614;56.026;35.960;2024-03-08T11:52:15;99165.38;;;1.64;64.24
75045;BME280;63614;56.026;35.960;2024-03-08T11:54:42;99163.34;;;1.48;64.39
75045;BME280;63614;56.026;35.960;2024-03-08T11:57:13;99161.97;;;1.24;65.24
75045;BME280;63614;56.026;35.960;2024-03-08T11:59:39;99155.78;;;1.27;64.96
75045;BME280;63614;56.026;35.960;2024-03-08T12:02:06;99161.16;;;1.04;65.63
75045;BME280;63614;56.026;35.960;2024-03-08T12:04:32;99163.03;;;1.02;65.99
75045;BME280;63614;56.026;35.960;2024-03-08T12:07:02;99161.69;;;1.08;66.17
75045;BME280;63614;56.026;35.960;2024-03-08T12:09:37;99164.81;;;1.21;66.04
75045;BME280;63614;56.026;35.960;2024-03-08T12:12:03;99143.25;;;1.34;66.03
75045;BME280;63614;56.026;35.960;2024-03-08T12:14:34;99148.38;;;1.34;65.14
75045;BME280;63614;56.026;35.960;2024-03-08T12:17:00;99149.47;;;1.41;65.65
75045;BME280;63614;56.026;35.960;2024-03-08T12:19:28;99147.84;;;1.40;65.35
75045;BME280;63614;56.026;35.960;2024-03-08T12:21:55;99156.56;;;1.18;65.54
75045;BME280;63614;56.026;35.960;2024-03-08T12:24:20;99157.69;;;1.35;65.54
75045;BME280;63614;56.026;35.960;2024-03-08T12:26:48;99161.69;;;1.27;65.34
75045;BME280;63614;56.026;35.960;2024-03-08T12:29:24;99150.66;;;1.56;65.44
75045;BME280;63614;56.026;35.960;2024-03-08T12:31:58;99153.78;;;1.60;64.59
75045;BME280;63614;56.026;35.960;2024-03-08T12:34:27;99148.38;;;1.43;64.91
75045;BME280;63614;56.026;35.960;2024-03-08T12:36:54;99152.69;;;1.43;65.29
75045;BME280;63614;56.026;35.960;2024-03-08T12:39:21;99156.63;;;1.37;65.67
75045;BME280;63614;56.026;35.960;2024-03-08T12:41:49;99164.53;;;1.15;65.59
75045;BME280;63614;56.026;35.960;2024-03-08T12:44:18;99163.56;;;1.06;65.92
75045;BME280;63614;56.026;35.960;2024-03-08T12:46:47;99170.16;;;1.08;66.48
75045;BME280;63614;56.026;35.960;2024-03-08T12:49:14;99171.69;;;1.21;66.34
75045;BME280;63614;56.026;35.960;2024-03-08T12:51:44;99178.72;;;1.29;65.61
75045;BME280;63614;56.026;35.960;2024-03-08T12:54:11;99178.44;;;1.22;65.63
75045;BME280;63614;56.026;35.960;2024-03-08T12:56:37;99178.00;;;1.07;66.44
75045;BME280;63614;56.026;35.960;2024-03-08T12:59:04;99177.50;;;1.33;66.22
75045;BME280;63614;56.026;35.960;2024-03-08T13:01:31;99177.22;;;1.26;66.09
75045;BME280;63614;56.026;35.960;2024-03-08T13:04:03;99171.81;;;1.29;65.72